createdAt,value
2022-10-08T04:32:44.317Z,53.88
2022-10-08T04:35:11.257Z,57.10
2022-10-08T04:37:38.025Z,56.17
2022-10-08T04:40:05.019Z,63.38
2022-10-08T04:42:34.854Z,52.05
2022-10-08T04:45:01.523Z,52.33
2022-10-08T04:47:28.181Z,54.95
2022-10-08T04:49:54.864Z,59.00
2022-10-08T04:52:21.531Z,62.78
2022-10-08T04:54:48.702Z,54.50
2022-10-08T04:57:15.535Z,65.05
2022-10-08T04:59:59.694Z,63.17
2022-10-08T05:02:29.225Z,69.70
2022-10-08T05:04:55.969Z,54.55
2022-10-08T05:07:22.775Z,60.80
2022-10-08T05:09:49.495Z,60.78
2022-10-08T05:12:16.589Z,78.43
2022-10-08T05:14:43.319Z,92.70
2022-10-08T05:17:09.989Z,72.20
2022-10-08T05:19:36.733Z,83.50
2022-10-08T05:22:03.490Z,60.90
2022-10-08T05:24:30.212Z,76.18
2022-10-08T05:26:58.816Z,63.75
2022-10-08T05:29:26.404Z,76.18
2022-10-08T05:31:53.211Z,65.82
2022-10-08T05:34:20.029Z,88.50
2022-10-08T05:36:46.722Z,81.07
2022-10-08T05:39:13.682Z,75.95
2022-10-08T05:41:41.227Z,71.32
2022-10-08T05:44:09.984Z,66.57
2022-10-08T05:46:38.124Z,65.32
2022-10-08T05:49:07.886Z,65.85
2022-10-08T05:51:35.266Z,63.75
2022-10-08T05:54:02.110Z,70.90
2022-10-08T05:56:29.292Z,70.50
2022-10-08T05:58:56.071Z,70.75
2022-10-08T06:01:31.488Z,78.53
2022-10-08T06:04:08.676Z,70.80
2022-10-08T06:06:37.293Z,83.03
2022-10-08T06:09:04.681Z,79.60
2022-10-08T06:11:34.074Z,70.60
2022-10-08T06:14:02.029Z,93.70
2022-10-08T06:16:30.021Z,63.53
2022-10-08T06:18:57.279Z,61.00
2022-10-08T06:21:26.535Z,64.43
2022-10-08T06:23:55.479Z,76.50
2022-10-08T06:26:27.306Z,59.88
2022-10-08T06:28:55.387Z,75.10
2022-10-08T06:31:22.372Z,81.00
2022-10-08T06:33:49.138Z,63.75
2022-10-08T06:36:18.904Z,59.58
2022-10-08T06:38:56.936Z,55.85
2022-10-08T06:41:23.968Z,62.53
2022-10-08T06:43:50.856Z,60.42
2022-10-08T06:46:18.991Z,70.13
2022-10-08T06:48:46.527Z,62.85
2022-10-08T06:51:16.946Z,67.00
2022-10-08T06:53:44.928Z,57.60
2022-10-08T06:56:18.092Z,57.45
2022-10-08T06:58:46.031Z,67.03
2022-10-08T07:01:15.893Z,63.53
2022-10-08T07:03:42.968Z,66.95
2022-10-08T07:06:13.007Z,57.67
2022-10-08T07:08:40.084Z,57.15
2022-10-08T07:11:15.885Z,66.07
2022-10-08T07:13:43.087Z,59.75
2022-10-08T07:16:20.320Z,53.70
2022-10-08T07:18:49.396Z,54.67
2022-10-08T07:21:17.643Z,55.85
2022-10-08T07:23:44.887Z,56.97
2022-10-08T07:26:17.374Z,51.50
2022-10-08T07:28:56.036Z,52.15
2022-10-08T07:31:30.091Z,49.88
2022-10-08T07:33:58.239Z,51.72
2022-10-08T07:36:26.670Z,53.38
2022-10-08T07:38:58.808Z,55.30
2022-10-08T07:41:26.568Z,46.28
2022-10-08T07:43:56.288Z,47.63
2022-10-08T07:46:23.031Z,48.60
2022-10-08T07:48:50.886Z,47.83
2022-10-08T07:51:19.665Z,42.53
2022-10-08T07:53:46.552Z,51.30
2022-10-08T07:56:15.118Z,49.80
2022-10-08T07:58:42.676Z,49.05
2022-10-08T08:01:12.259Z,43.80
2022-10-08T08:03:39.084Z,42.90
2022-10-08T08:06:14.695Z,51.55
2022-10-08T08:08:44.071Z,48.22
2022-10-08T08:11:13.904Z,48.10
2022-10-08T08:13:41.984Z,49.92
2022-10-08T08:16:12.217Z,47.92
2022-10-08T08:18:41.440Z,51.03
2022-10-08T08:21:11.949Z,45.92
2022-10-08T08:23:44.307Z,44.17
2022-10-08T08:26:14.920Z,51.20
2022-10-08T08:28:41.677Z,45.40
2022-10-08T08:31:14.234Z,44.38
2022-10-08T08:33:42.436Z,51.97
2022-10-08T08:36:09.969Z,49.20
2022-10-08T08:38:37.868Z,47.42
2022-10-08T08:41:23.455Z,47.97
2022-10-08T08:44:01.417Z,45.50
2022-10-08T08:46:32.853Z,44.80
2022-10-08T08:49:07.035Z,47.15
2022-10-08T08:51:34.624Z,42.75
2022-10-08T08:54:01.485Z,42.90
2022-10-08T08:56:29.856Z,45.00
2022-10-08T08:59:24.691Z,45.13
2022-10-08T09:01:55.215Z,42.50
2022-10-08T09:04:45.681Z,39.67
2022-10-08T09:07:17.228Z,39.15
2022-10-08T09:09:50.436Z,41.58
2022-10-08T09:12:21.599Z,42.47
2022-10-08T09:14:53.957Z,39.33
2022-10-08T09:17:37.148Z,44.47
2022-10-08T09:20:04.288Z,48.95
2022-10-08T09:22:40.617Z,41.33
2022-10-08T09:25:11.075Z,44.03
2022-10-08T09:28:00.969Z,47.78
2022-10-08T09:30:29.517Z,47.10
2022-10-08T09:33:07.942Z,50.10
2022-10-08T09:35:41.157Z,38.30
2022-10-08T09:38:24.172Z,41.70
2022-10-08T09:41:10.788Z,38.27
2022-10-08T09:43:37.555Z,34.50
2022-10-08T09:46:27.039Z,35.00
2022-10-08T09:48:53.819Z,35.25
2022-10-08T09:51:20.632Z,37.35
2022-10-08T09:53:52.312Z,38.92
2022-10-08T09:56:27.957Z,33.58
2022-10-08T09:58:58.896Z,35.17
2022-10-08T10:01:26.052Z,33.05
2022-10-08T10:04:01.069Z,31.73
2022-10-08T10:06:34.106Z,31.63
2022-10-08T10:09:03.009Z,33.05
2022-10-08T10:11:35.350Z,35.30
2022-10-08T10:14:27.945Z,31.75
2022-10-08T10:17:31.071Z,30.88
2022-10-08T10:20:05.037Z,32.38
2022-10-08T10:22:52.662Z,31.23
2022-10-08T10:25:37.688Z,30.95
2022-10-08T10:28:39.595Z,33.72
2022-10-08T10:31:16.381Z,26.70
2022-10-08T10:33:57.558Z,29.67
2022-10-08T10:36:29.765Z,30.35
2022-10-08T10:39:03.613Z,28.35
2022-10-08T10:41:32.962Z,31.42
2022-10-08T10:44:06.028Z,31.83
2022-10-08T10:46:49.530Z,29.83
2022-10-08T10:49:26.998Z,30.65
2022-10-08T10:52:05.930Z,28.20
2022-10-08T10:54:51.235Z,28.60
2022-10-08T10:57:45.563Z,27.92
2022-10-08T11:00:26.322Z,28.02
2022-10-08T11:03:02.767Z,28.08
2022-10-08T11:05:33.062Z,29.65
2022-10-08T11:08:08.249Z,28.95
2022-10-08T11:10:57.098Z,26.58
2022-10-08T11:13:35.709Z,26.02
2022-10-08T11:16:16.756Z,23.13
2022-10-08T11:18:47.382Z,24.33
2022-10-08T11:21:33.327Z,26.80
2022-10-08T11:24:28.397Z,24.95
2022-10-08T11:27:02.603Z,23.55
2022-10-08T11:29:45.521Z,24.98
2022-10-08T11:32:15.230Z,24.17
2022-10-08T11:35:00.505Z,21.02
2022-10-08T11:37:52.818Z,27.85
2022-10-08T11:40:26.972Z,26.65
2022-10-08T11:43:23.907Z,25.23
2022-10-08T11:46:20.737Z,24.55
2022-10-08T11:48:48.780Z,26.40
2022-10-08T11:51:21.861Z,26.52
2022-10-08T11:54:06.053Z,30.85
2022-10-08T11:56:35.164Z,27.95
2022-10-08T11:59:30.550Z,29.42
2022-10-08T12:02:25.024Z,29.17
2022-10-08T12:04:53.722Z,28.67
2022-10-08T12:07:34.294Z,26.42
2022-10-08T12:10:06.997Z,25.02
2022-10-08T12:12:49.397Z,28.47
2022-10-08T12:15:27.616Z,23.52
2022-10-08T12:18:17.360Z,26.33
2022-10-08T12:20:44.709Z,28.27
2022-10-08T12:23:35.662Z,26.25
2022-10-08T12:26:08.871Z,27.67
2022-10-08T12:28:35.580Z,28.15
2022-10-08T12:31:40.090Z,27.17
2022-10-08T12:34:22.746Z,28.75
2022-10-08T12:37:15.736Z,23.70
2022-10-08T12:39:45.746Z,24.95
2022-10-08T12:42:27.702Z,27.15
2022-10-08T12:45:12.865Z,24.92
2022-10-08T12:47:50.261Z,25.73
2022-10-08T12:50:22.986Z,23.98
2022-10-08T12:52:49.783Z,17.80
2022-10-08T12:55:20.390Z,15.93
2022-10-08T12:57:50.390Z,17.38
2022-10-08T13:00:32.899Z,15.35
2022-10-08T13:03:12.496Z,11.85
2022-10-08T13:05:41.016Z,9.45
2022-10-08T13:08:37.149Z,12.23
2022-10-08T13:11:09.351Z,9.43
2022-10-08T13:13:38.833Z,9.60
2022-10-08T13:16:10.681Z,10.07
2022-10-08T13:18:39.316Z,12.30
2022-10-08T13:21:23.009Z,9.85
2022-10-08T13:26:40.795Z,11.98
2022-10-08T13:29:26.617Z,14.02
2022-10-08T13:31:57.589Z,13.20
2022-10-08T13:34:32.401Z,14.63
2022-10-08T13:37:02.222Z,14.68
2022-10-08T13:39:49.330Z,14.32
2022-10-08T13:42:18.925Z,14.55
2022-10-08T13:44:45.891Z,17.73
2022-10-08T13:47:14.780Z,13.43
2022-10-08T13:49:41.830Z,13.75
2022-10-08T13:52:28.205Z,11.77
2022-10-08T13:54:59.842Z,13.90
2022-10-08T13:57:26.549Z,14.30
2022-10-08T13:59:53.273Z,13.60
2022-10-08T14:02:20.098Z,11.32
2022-10-08T14:04:47.245Z,10.55
2022-10-08T14:07:35.218Z,13.18
2022-10-08T14:10:02.101Z,13.13
2022-10-08T14:12:32.637Z,12.77
2022-10-08T14:15:00.116Z,12.93
2022-10-08T14:17:27.079Z,11.50
2022-10-08T14:19:56.728Z,13.20
2022-10-08T14:22:23.943Z,10.35
2022-10-08T14:24:51.265Z,9.85
2022-10-08T14:27:17.937Z,7.70
2022-10-08T14:29:44.603Z,5.68
2022-10-08T14:32:11.953Z,6.97
2022-10-08T14:34:39.271Z,4.15
2022-10-08T14:37:06.750Z,5.47
2022-10-08T14:39:33.441Z,8.68
2022-10-08T14:42:00.174Z,9.05
2022-10-08T14:44:26.907Z,6.80
2022-10-08T14:46:53.598Z,6.28
2022-10-08T14:49:21.209Z,5.47
2022-10-08T14:51:48.380Z,9.38
2022-10-08T14:54:15.494Z,9.38
2022-10-08T14:56:43.122Z,7.57
2022-10-08T14:59:10.866Z,5.38
2022-10-08T15:01:37.662Z,6.78
2022-10-08T15:04:05.561Z,12.43
2022-10-08T15:06:33.087Z,5.53
2022-10-08T15:09:00.015Z,4.88
2022-10-08T15:11:26.732Z,3.90
2022-10-08T15:13:53.899Z,4.88
2022-10-08T15:16:20.620Z,4.90
2022-10-08T15:18:48.326Z,5.03
2022-10-08T15:21:15.073Z,4.65
2022-10-08T15:23:41.814Z,3.83
2022-10-08T15:26:14.573Z,7.38
2022-10-08T15:28:42.867Z,5.35
2022-10-08T15:31:14.683Z,7.78
2022-10-08T15:33:43.446Z,7.72
2022-10-08T15:36:27.071Z,7.30
2022-10-08T15:39:03.341Z,7.25
2022-10-08T15:41:34.277Z,8.93
2022-10-08T15:44:13.843Z,7.55
2022-10-08T15:46:40.488Z,6.28
2022-10-08T15:49:07.278Z,4.82
2022-10-08T15:51:34.398Z,4.88
2022-10-08T15:54:02.267Z,6.18
2022-10-08T15:56:29.005Z,5.07
2022-10-08T15:58:57.948Z,4.97
2022-10-08T16:01:25.414Z,6.18
2022-10-08T16:03:54.078Z,6.68
2022-10-08T16:06:31.817Z,8.77
2022-10-08T16:08:58.782Z,9.23
2022-10-08T16:11:33.348Z,4.20
2022-10-08T16:14:06.974Z,4.18
2022-10-08T16:16:34.028Z,2.97
2022-10-08T16:19:03.118Z,4.13
2022-10-08T16:21:31.865Z,5.97
2022-10-08T16:23:59.156Z,7.28
2022-10-08T16:26:26.441Z,8.32
2022-10-08T16:28:55.281Z,6.18
2022-10-08T16:31:23.174Z,5.43
2022-10-08T16:33:58.314Z,8.23
2022-10-08T16:36:26.337Z,3.85
2022-10-08T16:38:53.385Z,8.55
2022-10-08T16:41:25.714Z,5.60
2022-10-08T16:43:54.187Z,4.40
2022-10-08T16:46:22.385Z,6.45
2022-10-08T16:48:53.689Z,4.68
2022-10-08T16:51:21.824Z,4.57
2022-10-08T16:53:53.682Z,3.85
2022-10-08T16:56:25.334Z,4.75
2022-10-08T16:58:57.123Z,3.97
2022-10-08T17:01:24.480Z,6.55
2022-10-08T17:03:51.568Z,4.85
2022-10-08T17:06:20.470Z,5.55
2022-10-08T17:08:48.707Z,7.00
2022-10-08T17:11:15.947Z,3.58
2022-10-08T17:13:48.362Z,8.15
2022-10-08T17:16:16.423Z,6.85
2022-10-08T17:18:44.280Z,3.78
2022-10-08T17:21:12.934Z,5.03
2022-10-08T17:23:39.923Z,5.43
2022-10-08T17:26:15.085Z,5.82
2022-10-08T17:28:44.657Z,5.80
2022-10-08T17:31:14.327Z,4.25
2022-10-08T17:33:41.825Z,5.47
2022-10-08T17:36:18.320Z,5.25
2022-10-08T17:38:46.590Z,3.97
2022-10-08T17:41:31.733Z,3.60
2022-10-08T17:44:01.465Z,4.97
2022-10-08T17:46:37.504Z,6.97
2022-10-08T17:49:04.502Z,3.63
2022-10-08T17:51:32.153Z,5.35
2022-10-08T17:54:01.474Z,6.20
2022-10-08T17:56:28.610Z,5.65
2022-10-08T17:58:55.809Z,6.15
2022-10-08T18:01:25.390Z,5.22
2022-10-08T18:03:57.924Z,5.90
2022-10-08T18:06:25.701Z,5.57
2022-10-08T18:09:00.715Z,3.75
2022-10-08T18:11:29.381Z,4.93
2022-10-08T18:13:56.077Z,3.45
2022-10-08T18:16:23.389Z,4.18
2022-10-08T18:18:50.041Z,4.30
2022-10-08T18:21:18.280Z,5.35
2022-10-08T18:23:46.610Z,4.88
2022-10-08T18:26:16.265Z,4.90
2022-10-08T18:28:43.050Z,4.95
2022-10-08T18:31:11.523Z,4.45
2022-10-08T18:33:39.889Z,3.83
2022-10-08T18:36:18.585Z,9.18
2022-10-08T18:38:47.280Z,5.22
2022-10-08T18:41:15.361Z,7.30
2022-10-08T18:43:42.751Z,6.38
2022-10-08T18:46:09.968Z,6.32
2022-10-08T18:48:37.402Z,7.60
2022-10-08T18:51:06.015Z,5.40
2022-10-08T18:53:38.600Z,5.45
2022-10-08T18:56:08.019Z,6.75
2022-10-08T18:58:35.046Z,7.28
2022-10-08T19:01:02.062Z,7.13
2022-10-08T19:03:28.726Z,9.25
2022-10-08T19:05:55.585Z,7.68
2022-10-08T19:08:22.327Z,7.60
2022-10-08T19:10:49.372Z,9.07
2022-10-08T19:13:16.041Z,7.30
2022-10-08T19:15:42.774Z,7.10
2022-10-08T19:18:09.482Z,8.98
2022-10-08T19:20:36.571Z,6.43
2022-10-08T19:23:03.394Z,8.23
2022-10-08T19:25:30.054Z,8.88
2022-10-08T19:27:57.075Z,9.48
2022-10-08T19:30:26.567Z,8.63
2022-10-08T19:32:55.141Z,7.63
2022-10-08T19:35:21.787Z,6.63
2022-10-08T19:37:48.435Z,6.03
2022-10-08T19:40:15.091Z,11.93
2022-10-08T19:42:41.740Z,8.90
2022-10-08T19:45:08.797Z,6.53
2022-10-08T19:47:35.910Z,10.70
2022-10-08T19:50:03.082Z,5.07
2022-10-08T19:52:30.045Z,26.15
2022-10-08T19:54:56.767Z,35.50
2022-10-08T19:57:23.527Z,35.53
2022-10-08T19:59:50.238Z,20.35
2022-10-08T20:02:16.953Z,5.15
2022-10-08T20:04:44.827Z,5.97
2022-10-08T20:07:11.506Z,5.25
2022-10-08T20:09:38.181Z,7.65
2022-10-08T20:12:05.044Z,7.18
2022-10-08T20:14:31.920Z,7.05
2022-10-08T20:16:58.604Z,3.17
2022-10-08T20:19:25.325Z,5.15
2022-10-08T20:21:55.581Z,7.35
2022-10-08T20:24:22.280Z,5.07
2022-10-08T20:26:49.834Z,7.43
2022-10-08T20:29:19.380Z,21.95
2022-10-08T20:31:49.489Z,7.88
2022-10-08T20:34:23.694Z,7.75
2022-10-08T20:36:51.257Z,7.60
2022-10-08T20:39:20.286Z,8.98
2022-10-08T20:41:47.273Z,8.35
2022-10-08T20:44:14.701Z,5.68
2022-10-08T20:46:41.531Z,6.60
2022-10-08T20:49:10.173Z,4.28
2022-10-08T20:51:39.186Z,4.40
2022-10-08T20:54:08.036Z,5.78
2022-10-08T20:56:39.827Z,7.60
2022-10-08T20:59:08.593Z,5.10
2022-10-08T21:01:38.218Z,3.00
2022-10-08T21:04:06.383Z,4.60
2022-10-08T21:06:42.227Z,3.70
2022-10-08T21:09:09.658Z,3.17
2022-10-08T21:11:37.423Z,4.00
2022-10-08T21:14:05.470Z,7.90
2022-10-08T21:16:34.703Z,5.32
2022-10-08T21:19:04.167Z,3.58
2022-10-08T21:21:34.394Z,5.15
2022-10-08T21:24:01.370Z,2.80
2022-10-08T21:26:30.006Z,3.45
2022-10-08T21:28:59.154Z,4.38
2022-10-08T21:31:27.934Z,5.60
2022-10-08T21:33:55.223Z,3.08
2022-10-08T21:36:28.961Z,3.35
2022-10-08T21:38:56.309Z,4.95
2022-10-08T21:41:24.948Z,5.35
2022-10-08T21:43:54.728Z,3.05
2022-10-08T21:46:23.634Z,2.42
2022-10-08T21:49:14.102Z,3.63
2022-10-08T21:51:41.113Z,4.45
2022-10-08T21:54:08.301Z,5.72
2022-10-08T21:56:37.598Z,3.80
2022-10-08T21:59:06.505Z,5.93
2022-10-08T22:01:39.843Z,3.45
2022-10-08T22:04:12.002Z,4.47
2022-10-08T22:06:44.545Z,6.25
2022-10-08T22:09:17.678Z,4.80
2022-10-08T22:11:44.916Z,8.77
2022-10-08T22:14:11.669Z,5.70
2022-10-08T22:16:38.434Z,6.03
2022-10-08T22:19:05.828Z,8.88
2022-10-08T22:21:32.997Z,11.23
2022-10-08T22:24:00.219Z,7.20
2022-10-08T22:26:30.827Z,6.93
2022-10-08T22:28:57.933Z,6.00
2022-10-08T22:31:24.821Z,5.93
2022-10-08T22:33:51.653Z,7.18
2022-10-08T22:36:30.197Z,5.25
2022-10-08T22:38:58.655Z,4.68
2022-10-08T22:41:30.405Z,4.70
2022-10-08T22:43:57.944Z,4.45
2022-10-08T22:46:27.757Z,6.38
2022-10-08T22:49:05.376Z,6.18
2022-10-08T22:51:32.290Z,5.57
2022-10-08T22:53:59.354Z,6.80
2022-10-08T22:56:30.937Z,4.45
2022-10-08T22:59:00.971Z,5.35
2022-10-08T23:01:28.899Z,4.82
2022-10-08T23:03:55.835Z,6.80
2022-10-08T23:06:28.674Z,5.40
2022-10-08T23:09:00.705Z,7.47
2022-10-08T23:11:28.162Z,7.70
2022-10-08T23:13:56.487Z,6.47
2022-10-08T23:16:25.555Z,6.85
2022-10-08T23:18:55.545Z,4.88
2022-10-08T23:21:22.853Z,5.18
2022-10-08T23:23:50.474Z,3.92
2022-10-08T23:26:17.729Z,5.25
2022-10-08T23:28:48.969Z,5.28
